Time;durP1;ratioP1;P1;durP2;ratioP2;P2;SDS_P1;SDS_P2;PMS_P1;PMS_P2;Temp;Humidity;BMP_temperature;BMP_pressure;BME280_temperature;BME280_humidity;BME280_pressure;Samples;Min_cycle;Max_cycle;Signal;HPM_P1;HPM_P2
2022/09/04 00:00:44;;;;;;;0.98;0.98;;;19.00;99.90;;;;;;5050690;28;20700;-70
2022/09/04 00:03:27;;;;;;;1.23;1.10;;;19.20;99.90;;;;;;5041803;28;20195;-69
2022/09/04 00:05:56;;;;;;;0.93;0.93;;;19.20;99.90;;;;;;5045399;28;20699;-72
2022/09/04 00:08:40;;;;;;;0.90;0.90;;;19.30;99.90;;;;;;5039446;28;20281;-70
2022/09/04 00:11:13;;;;;;;0.80;0.80;;;19.20;99.90;;;;;;5032128;28;20238;-70
2022/09/04 00:13:44;;;;;;;0.88;0.88;;;19.30;99.90;;;;;;5043293;28;20214;-69
2022/09/04 00:16:18;;;;;;;0.90;0.90;;;19.30;99.90;;;;;;5029396;28;20233;-70
2022/09/04 00:18:54;;;;;;;1.00;1.00;;;19.30;99.90;;;;;;5042803;28;20214;-70
2022/09/04 00:21:27;;;;;;;0.82;0.82;;;19.30;99.90;;;;;;5040779;28;20239;-69
2022/09/04 00:23:58;;;;;;;1.00;1.00;;;19.20;99.90;;;;;;5043142;28;20665;-70
2022/09/04 00:26:44;;;;;;;0.90;0.90;;;19.20;99.90;;;;;;5039096;28;20238;-69
2022/09/04 00:29:18;;;;;;;1.15;1.08;;;19.20;99.90;;;;;;5043999;28;20197;-70
2022/09/04 00:31:50;;;;;;;1.00;0.90;;;19.10;99.90;;;;;;5042539;28;20238;-69
2022/09/04 00:34:31;;;;;;;1.10;1.10;;;19.10;99.90;;;;;;5113962;23;20220;-76
2022/09/04 00:37:05;;;;;;;1.50;1.40;;;19.00;99.90;;;;;;5115554;27;20188;-77
2022/09/04 00:39:38;;;;;;;1.05;1.00;;;18.90;99.90;;;;;;5120786;27;20220;-76
2022/09/04 00:42:16;;;;;;;1.00;1.00;;;18.90;99.90;;;;;;5113324;28;20560;-76
2022/09/04 00:44:58;;;;;;;1.13;1.10;;;18.90;99.90;;;;;;5096133;28;20220;-75
2022/09/04 00:47:43;;;;;;;1.10;1.10;;;18.90;99.90;;;;;;5100732;28;20567;-76
2022/09/04 00:51:00;;;;;;;0.95;0.95;;;18.80;99.90;;;;;;5101822;28;20213;-76
2022/09/04 00:53:59;;;;;;;1.38;1.27;;;18.70;99.90;;;;;;5022507;28;20220;-76
2022/09/04 00:57:02;;;;;;;0.80;0.80;;;18.60;99.90;;;;;;4966133;28;20294;-77
2022/09/04 00:59:51;;;;;;;1.23;1.23;;;18.40;99.90;;;;;;5093510;28;20554;-77
2022/09/04 01:02:26;;;;;;;1.20;1.20;;;18.30;99.90;;;;;;5097752;28;20207;-76
2022/09/04 01:05:00;;;;;;;1.48;1.20;;;18.20;99.90;;;;;;5097080;28;20212;-77
2022/09/04 01:07:43;;;;;;;1.17;1.15;;;18.00;99.90;;;;;;5102197;28;20220;-78
2022/09/04 01:10:35;;;;;;;1.60;1.17;;;17.90;99.90;;;;;;5109508;28;20216;-77
2022/09/04 01:13:11;;;;;;;1.10;1.10;;;17.90;99.90;;;;;;5095031;28;20218;-78
2022/09/04 01:15:44;;;;;;;0.98;0.98;;;17.90;99.90;;;;;;5095764;28;20296;-77
2022/09/04 01:18:16;;;;;;;1.30;1.20;;;18.00;99.90;;;;;;5100522;28;20647;-76
2022/09/04 01:21:10;;;;;;;1.00;1.00;;;18.00;99.90;;;;;;5099091;28;20235;-77
2022/09/04 01:23:56;;;;;;;1.42;1.30;;;18.00;99.90;;;;;;5095283;28;20221;-76
2022/09/04 01:26:30;;;;;;;1.13;1.02;;;17.80;99.90;;;;;;5102056;28;20589;-76
2022/09/04 01:29:11;;;;;;;0.93;0.90;;;17.70;99.90;;;;;;5098842;28;20681;-76
2022/09/04 01:31:48;;;;;;;0.82;0.82;;;17.60;99.90;;;;;;5094664;28;20209;-77
2022/09/04 01:34:38;;;;;;;1.10;1.10;;;17.60;99.90;;;;;;5097468;28;20243;-77
2022/09/04 01:37:20;;;;;;;1.25;1.15;;;17.70;99.90;;;;;;5103187;28;20182;-77
2022/09/04 01:40:03;;;;;;;1.10;1.10;;;17.80;99.90;;;;;;5103694;28;20228;-79
2022/09/04 01:42:41;;;;;;;0.98;0.98;;;17.80;99.90;;;;;;5099027;28;20262;-77
2022/09/04 01:45:10;;;;;;;0.90;0.90;;;17.90;99.90;;;;;;5093810;28;20221;-77
2022/09/04 01:47:43;;;;;;;1.30;1.20;;;17.90;99.90;;;;;;5096169;28;20217;-77
2022/09/04 01:50:14;;;;;;;1.45;1.35;;;17.90;99.90;;;;;;5103627;28;20776;-78
2022/09/04 01:52:48;;;;;;;1.00;1.00;;;17.90;99.90;;;;;;5092315;28;20213;-77
2022/09/04 01:55:22;;;;;;;1.10;1.10;;;17.90;99.90;;;;;;5100480;28;20215;-77
2022/09/04 01:58:11;;;;;;;1.20;1.10;;;17.80;99.90;;;;;;5098820;28;20197;-78
2022/09/04 02:00:49;;;;;;;1.08;1.08;;;17.80;99.90;;;;;;5100675;28;20248;-77
2022/09/04 02:03:25;;;;;;;1.17;1.10;;;17.80;99.90;;;;;;5107232;28;20237;-77
2022/09/04 02:06:02;;;;;;;1.00;0.98;;;17.80;99.90;;;;;;5108621;28;20216;-78
2022/09/04 02:08:54;;;;;;;1.17;1.17;;;17.80;99.90;;;;;;5102938;28;20205;-77
2022/09/04 02:11:25;;;;;;;1.42;1.15;;;17.80;99.90;;;;;;5096923;28;20710;-77
2022/09/04 02:24:45;;;;;;;2.83;0.90;;;17.70;99.90;;;;;;5073497;28;20213;-77
2022/09/04 02:45:09;;;;;;;1.00;1.00;;;17.40;99.90;;;;;;5101189;28;20223;-77
2022/09/04 03:40:06;;;;;;;1.30;1.20;;;16.90;99.90;;;;;;4989274;28;20196;-78
2022/09/04 04:00:18;;;;;;;1.30;1.30;;;16.70;99.90;;;;;;5077991;28;20276;-77
2022/09/04 04:27:35;;;;;;;1.00;1.00;;;16.60;99.90;;;;;;5011694;28;20263;-77
2022/09/04 05:01:46;;;;;;;1.02;1.00;;;17.00;99.90;;;;;;5022605;28;20619;-76
2022/09/04 05:15:21;;;;;;;1.10;1.10;;;17.20;99.90;;;;;;5047044;28;20219;-77
2022/09/04 05:31:30;;;;;;;1.00;1.00;;;17.30;99.90;;;;;;5099189;28;20213;-77
2022/09/04 06:05:11;;;;;;;1.45;1.35;;;17.50;99.90;;;;;;5077070;23;20214;-77
2022/09/04 06:07:48;;;;;;;1.13;1.10;;;17.50;99.90;;;;;;5063960;28;20564;-78
2022/09/04 06:10:20;;;;;;;1.25;1.25;;;17.60;99.90;;;;;;5078543;28;20576;-77
2022/09/04 06:13:08;;;;;;;1.42;1.42;;;17.70;99.90;;;;;;5077232;28;20214;-76
2022/09/04 06:15:48;;;;;;;1.25;1.17;;;17.90;99.90;;;;;;5062030;28;20577;-77
2022/09/04 06:18:33;;;;;;;2.83;1.45;;;18.10;99.90;;;;;;5055378;28;20198;-77
2022/09/04 06:21:16;;;;;;;1.98;1.40;;;18.60;99.90;;;;;;5054518;28;20221;-77
2022/09/04 06:23:54;;;;;;;1.52;1.42;;;19.00;99.90;;;;;;5063740;28;20229;-76
2022/09/04 06:26:51;;;;;;;2.13;1.27;;;19.20;99.90;;;;;;5050454;28;20221;-77
2022/09/04 06:29:39;;;;;;;1.20;1.20;;;19.30;99.90;;;;;;5066147;28;20203;-76
2022/09/04 06:32:21;;;;;;;1.67;1.50;;;19.40;99.90;;;;;;5047250;28;20215;-77
2022/09/04 06:35:09;;;;;;;1.40;1.30;;;19.50;99.90;;;;;;5061660;28;20215;-77
2022/09/04 06:37:52;;;;;;;1.08;1.08;;;19.70;99.90;;;;;;5071936;22;20253;-70
2022/09/04 06:40:37;;;;;;;2.08;1.73;;;20.00;99.90;;;;;;5063962;28;20244;-71
2022/09/04 06:43:15;;;;;;;1.40;1.30;;;20.10;99.90;;;;;;5067404;28;20206;-72
2022/09/04 06:45:53;;;;;;;1.40;1.30;;;20.30;99.90;;;;;;5066346;28;20218;-71
2022/09/04 06:48:35;;;;;;;1.42;1.33;;;20.50;99.90;;;;;;5067575;28;20308;-71
2022/09/04 06:51:15;;;;;;;1.40;1.23;;;20.60;99.90;;;;;;5068022;28;20214;-71
2022/09/04 06:53:56;;;;;;;1.40;1.30;;;20.40;99.90;;;;;;5069838;28;20915;-71
2022/09/04 06:56:41;;;;;;;1.35;1.25;;;20.50;99.90;;;;;;5067075;28;20210;-71
2022/09/04 06:59:24;;;;;;;1.08;1.08;;;20.70;99.90;;;;;;5062855;28;20195;-73
2022/09/04 07:02:03;;;;;;;1.23;1.20;;;20.80;99.90;;;;;;5068178;28;20190;-71
2022/09/04 07:04:47;;;;;;;1.13;1.13;;;20.90;99.90;;;;;;5064576;28;20663;-71
2022/09/04 07:07:22;;;;;;;1.15;1.15;;;21.00;99.90;;;;;;5066126;28;20229;-72
2022/09/04 07:09:56;;;;;;;1.40;1.30;;;20.90;99.90;;;;;;5068916;28;20711;-72
2022/09/04 07:12:56;;;;;;;1.27;1.27;;;20.70;99.90;;;;;;5066115;28;20195;-73
2022/09/04 07:15:43;;;;;;;1.45;1.20;;;20.20;99.90;;;;;;5041634;28;21369;-73
2022/09/04 07:18:23;;;;;;;1.38;1.27;;;20.20;99.90;;;;;;5061353;28;20225;-74
2022/09/04 07:21:02;;;;;;;1.35;1.13;;;20.50;99.90;;;;;;5067110;28;20229;-72
2022/09/04 07:23:43;;;;;;;1.67;1.23;;;20.80;99.90;;;;;;5068393;28;20259;-74
2022/09/04 07:26:27;;;;;;;1.95;1.52;;;21.20;99.90;;;;;;5071969;28;20271;-74
2022/09/04 07:29:11;;;;;;;1.20;1.10;;;21.40;99.90;;;;;;5067982;28;20218;-73
2022/09/04 07:31:41;;;;;;;1.48;1.33;;;21.50;99.90;;;;;;5068374;28;20218;-73
2022/09/04 07:34:14;;;;;;;1.65;1.30;;;21.60;99.90;;;;;;5070861;28;20201;-73
2022/09/04 07:36:49;;;;;;;1.13;1.13;;;21.70;99.90;;;;;;5071231;28;20220;-73
2022/09/04 07:39:25;;;;;;;1.30;1.20;;;21.80;99.90;;;;;;5070928;28;20189;-75
2022/09/04 07:42:00;;;;;;;1.75;1.52;;;21.80;99.90;;;;;;5071971;28;20602;-74
2022/09/04 07:44:37;;;;;;;1.13;1.10;;;21.70;99.90;;;;;;5067381;28;20209;-74
2022/09/04 07:47:13;;;;;;;1.33;1.23;;;21.70;99.90;;;;;;5069216;28;20216;-74
2022/09/04 07:49:49;;;;;;;1.35;1.25;;;22.00;99.90;;;;;;5071715;28;20224;-73
2022/09/04 07:52:29;;;;;;;1.52;1.13;;;22.10;99.90;;;;;;5068821;28;20213;-74
2022/09/04 07:55:13;;;;;;;1.45;1.35;;;22.30;99.90;;;;;;5069736;28;20711;-74
2022/09/04 07:58:09;;;;;;;2.80;1.40;;;22.30;99.90;;;;;;5065404;28;20222;-74
2022/09/04 08:00:44;;;;;;;1.45;1.35;;;22.30;99.90;;;;;;5065532;28;20210;-74
2022/09/04 08:03:40;;;;;;;1.63;1.52;;;22.30;99.90;;;;;;5074911;28;20190;-73
2022/09/04 08:06:12;;;;;;;1.55;1.45;;;22.50;99.90;;;;;;5071286;28;20222;-73
2022/09/04 08:09:04;;;;;;;1.77;1.60;;;22.60;99.90;;;;;;5069882;28;20275;-74
2022/09/04 08:11:47;;;;;;;1.40;1.30;;;22.60;99.90;;;;;;5065624;28;20222;-74
2022/09/04 08:14:31;;;;;;;2.00;1.30;;;22.70;99.90;;;;;;5070043;28;20273;-74
2022/09/04 08:17:44;;;;;;;1.63;1.27;;;22.80;99.90;;;;;;5063131;28;20271;-73
2022/09/04 08:20:23;;;;;;;1.60;1.50;;;22.90;99.90;;;;;;5069636;28;20210;-74
2022/09/04 08:23:02;;;;;;;1.25;1.20;;;23.00;99.90;;;;;;5071101;28;20200;-73
2022/09/04 08:25:43;;;;;;;1.60;1.40;;;23.00;99.90;;;;;;5070147;28;20229;-72
2022/09/04 08:28:33;;;;;;;1.50;1.40;;;23.00;99.90;;;;;;5067294;28;20218;-72
2022/09/04 08:31:08;;;;;;;4.63;1.58;;;23.20;99.90;;;;;;5069264;28;20222;-73
2022/09/04 08:34:11;;;;;;;2.05;1.40;;;23.40;99.90;;;;;;5069571;28;20190;-73
2022/09/04 08:36:50;;;;;;;2.05;1.20;;;23.90;99.90;;;;;;5007321;28;20232;-73
2022/09/04 08:39:30;;;;;;;2.45;1.40;;;24.00;99.90;;;;;;5066945;28;20562;-74
2022/09/04 08:42:50;;;;;;;1.35;1.25;;;23.90;99.90;;;;;;5067620;28;20198;-74
2022/09/04 08:45:46;;;;;;;1.38;1.27;;;23.60;99.90;;;;;;4985492;28;20218;-74
2022/09/04 08:49:10;;;;;;;1.20;1.20;;;23.80;99.90;;;;;;5053451;28;20229;-74
2022/09/04 08:52:17;;;;;;;1.30;1.25;;;24.00;99.90;;;;;;5070220;28;20218;-73
2022/09/04 08:55:16;;;;;;;1.17;1.05;;;24.10;99.90;;;;;;5054448;28;20228;-72
2022/09/04 08:58:18;;;;;;;1.05;1.02;;;24.20;99.90;;;;;;5062424;28;20215;-73
2022/09/04 09:01:05;;;;;;;1.38;1.20;;;24.60;99.90;;;;;;5053768;28;20272;-73
2022/09/04 09:04:05;;;;;;;1.45;1.35;;;24.90;99.90;;;;;;5065509;28;20209;-73
2022/09/04 09:07:07;;;;;;;1.25;1.25;;;24.90;99.90;;;;;;5068964;28;20264;-73
2022/09/04 09:10:03;;;;;;;3.08;1.40;;;24.50;99.90;;;;;;5066798;28;20225;-73
2022/09/04 09:13:09;;;;;;;1.75;1.38;;;24.20;99.90;;;;;;5049669;28;20226;-73
2022/09/04 09:16:18;;;;;;;1.25;1.00;;;24.50;99.90;;;;;;5064156;28;20327;-74
2022/09/04 09:19:09;;;;;;;1.42;1.30;;;25.00;99.90;;;;;;5066238;28;20218;-73
2022/09/04 09:21:43;;;;;;;3.05;1.30;;;25.30;99.90;;;;;;5066306;28;20218;-73
2022/09/04 09:24:50;;;;;;;1.00;1.00;;;25.40;99.90;;;;;;5066899;28;20257;-74
2022/09/04 09:28:01;;;;;;;1.27;1.20;;;25.30;99.90;;;;;;5064620;28;20218;-73
2022/09/04 09:30:43;;;;;;;1.15;1.10;;;25.10;99.90;;;;;;5064063;28;20226;-73
2022/09/04 09:33:38;;;;;;;1.35;1.30;;;25.20;99.90;;;;;;5068763;28;20198;-73
2022/09/04 09:36:38;;;;;;;1.25;1.15;;;25.20;99.90;;;;;;5064921;28;20218;-73
2022/09/04 09:39:32;;;;;;;1.63;0.90;;;25.20;99.90;;;;;;5064611;28;20727;-72
2022/09/04 09:42:37;;;;;;;1.30;1.08;;;25.30;99.90;;;;;;5065091;28;20225;-73
2022/09/04 09:45:34;;;;;;;1.95;1.40;;;25.50;99.90;;;;;;5056988;28;20224;-74
2022/09/04 09:48:26;;;;;;;1.30;1.20;;;25.70;99.90;;;;;;5064702;28;20210;-73
2022/09/04 09:51:27;;;;;;;1.27;1.17;;;25.50;99.90;;;;;;5066878;28;20230;-73
2022/09/04 09:54:39;;;;;;;1.67;1.10;;;25.70;99.90;;;;;;5066588;28;20205;-74
2022/09/04 10:00:12;;;;;;;2.67;1.40;;;25.80;99.90;;;;;;5056963;27;20570;-73
2022/09/04 10:03:07;;;;;;;1.17;1.15;;;25.40;99.90;;;;;;5044632;28;20198;-72
2022/09/04 10:05:56;;;;;;;1.55;1.08;;;25.30;99.90;;;;;;5043082;28;20821;-73
2022/09/04 10:09:05;;;;;;;1.40;1.30;;;25.50;99.90;;;;;;5047219;28;20219;-73
2022/09/04 10:12:02;;;;;;;1.83;1.10;;;25.50;99.90;;;;;;5042595;28;20211;-72
2022/09/04 10:15:02;;;;;;;1.15;1.10;;;25.30;99.90;;;;;;5012645;28;20298;-73
2022/09/04 10:18:10;;;;;;;0.93;0.90;;;25.50;99.90;;;;;;5046549;28;20225;-73
2022/09/04 10:21:09;;;;;;;1.10;1.00;;;25.60;99.90;;;;;;5045493;28;20219;-72
2022/09/04 10:24:12;;;;;;;1.30;1.20;;;26.10;99.90;;;;;;5045056;28;20347;-72
2022/09/04 10:27:10;;;;;;;1.10;1.10;;;26.60;99.90;;;;;;5044242;28;20222;-73
2022/09/04 10:30:01;;;;;;;2.13;1.20;;;26.60;99.90;;;;;;5044725;28;20214;-73
2022/09/04 10:32:44;;;;;;;1.98;1.15;;;26.30;99.90;;;;;;5044029;28;20199;-73
2022/09/04 10:35:21;;;;;;;1.00;1.00;;;26.20;99.90;;;;;;5045827;28;20219;-73
2022/09/04 10:38:11;;;;;;;1.23;1.13;;;26.40;99.90;;;;;;5044351;28;20237;-73
2022/09/04 10:40:47;;;;;;;1.40;1.30;;;26.60;99.90;;;;;;5045982;28;20240;-73
2022/09/04 10:43:41;;;;;;;1.48;1.20;;;26.80;99.90;;;;;;5046604;28;20195;-73
2022/09/04 10:46:14;;;;;;;1.10;1.10;;;26.50;99.90;;;;;;5043111;28;20227;-73
2022/09/04 10:49:00;;;;;;;3.78;1.40;;;26.70;99.90;;;;;;5045138;28;20211;-73
2022/09/04 10:51:55;;;;;;;1.70;1.30;;;26.80;99.90;;;;;;5045265;28;20289;-75
2022/09/04 10:54:53;;;;;;;1.00;1.00;;;26.90;99.90;;;;;;5047174;28;20203;-73
2022/09/04 10:57:46;;;;;;;1.10;1.10;;;27.00;99.90;;;;;;5045458;28;20229;-73
2022/09/04 11:00:17;;;;;;;1.10;1.10;;;27.30;99.90;;;;;;5044314;28;20221;-72
2022/09/04 11:03:32;;;;;;;1.00;1.00;;;27.30;99.90;;;;;;5046266;28;20195;-73
2022/09/04 11:06:26;;;;;;;0.95;0.95;;;27.10;99.90;;;;;;5045398;28;20299;-73
2022/09/04 11:09:19;;;;;;;1.33;1.23;;;27.20;99.90;;;;;;5046138;28;20238;-74
2022/09/04 11:12:16;;;;;;;1.42;1.33;;;27.20;99.90;;;;;;5028929;28;20235;-73
2022/09/04 11:15:11;;;;;;;1.20;1.10;;;27.20;99.90;;;;;;5029326;28;20731;-74
2022/09/04 11:18:23;;;;;;;1.20;1.10;;;27.30;99.90;;;;;;5029915;28;20211;-74
2022/09/04 11:21:32;;;;;;;1.20;1.10;;;27.30;99.90;;;;;;5031993;28;20795;-73
2022/09/04 11:24:38;;;;;;;1.00;1.00;;;27.40;99.90;;;;;;5007614;28;20672;-73
2022/09/04 11:28:05;;;;;;;0.95;0.95;;;27.60;99.90;;;;;;5023170;28;20219;-73
2022/09/04 11:30:47;;;;;;;1.13;1.10;;;27.80;99.90;;;;;;5026291;28;20222;-73
2022/09/04 11:33:51;;;;;;;1.90;1.30;;;28.10;99.90;;;;;;5025498;28;20242;-76
2022/09/04 11:36:47;;;;;;;1.00;1.00;;;28.10;99.90;;;;;;5029661;28;20281;-75
2022/09/04 11:39:33;;;;;;;1.02;1.02;;;28.00;99.90;;;;;;5031790;28;20215;-77
2022/09/04 11:42:30;;;;;;;1.30;1.20;;;27.90;99.90;;;;;;5029540;28;20204;-74
2022/09/04 11:45:40;;;;;;;3.72;1.33;;;28.00;99.90;;;;;;5029493;28;20725;-75
2022/09/04 11:48:27;;;;;;;1.23;1.13;;;28.00;99.90;;;;;;5031826;28;20235;-75
2022/09/04 11:51:22;;;;;;;1.17;1.17;;;27.90;99.90;;;;;;5031812;28;20290;-74
2022/09/04 11:54:09;;;;;;;1.20;1.20;;;28.10;99.90;;;;;;5028511;28;20204;-73
2022/09/04 11:56:53;;;;;;;1.00;1.00;;;28.10;99.90;;;;;;5025249;28;20227;-74
2022/09/04 11:59:47;;;;;;;1.00;1.00;;;28.20;99.90;;;;;;5026322;28;20765;-74
2022/09/04 12:03:02;;;;;;;1.10;1.00;;;28.10;99.90;;;;;;5032466;28;20196;-73
2022/09/04 12:05:44;;;;;;;1.00;1.00;;;28.30;99.90;;;;;;5027080;28;20285;-75
2022/09/04 12:08:35;;;;;;;1.58;1.10;;;28.60;99.90;;;;;;5030142;28;20257;-73
2022/09/04 12:11:30;;;;;;;1.10;1.10;;;28.60;99.90;;;;;;5027882;28;20795;-74
2022/09/04 12:14:21;;;;;;;0.95;0.95;;;28.40;99.90;;;;;;5027843;28;20253;-73
2022/09/04 12:17:18;;;;;;;1.00;1.00;;;28.40;99.90;;;;;;5030308;28;20223;-74
2022/09/04 12:20:17;;;;;;;1.95;1.20;;;28.40;99.90;;;;;;5033160;28;20219;-73
2022/09/04 12:23:30;;;;;;;1.83;1.10;;;28.60;99.90;;;;;;5030014;28;20282;-71
2022/09/04 12:26:29;;;;;;;1.05;1.05;;;28.90;99.90;;;;;;5028664;28;20705;-72
2022/09/04 12:29:17;;;;;;;1.13;1.08;;;28.90;99.90;;;;;;5026253;28;20208;-72
2022/09/04 12:32:31;;;;;;;0.90;0.90;;;28.80;99.90;;;;;;5027218;28;20744;-72
2022/09/04 12:35:25;;;;;;;1.13;0.90;;;28.80;99.90;;;;;;5020322;28;20223;-73
2022/09/04 12:38:14;;;;;;;1.00;1.00;;;28.80;99.90;;;;;;5028860;28;20223;-72
2022/09/04 12:40:51;;;;;;;1.10;1.00;;;28.90;99.90;;;;;;5028687;28;20574;-72
2022/09/04 12:43:30;;;;;;;1.00;1.00;;;28.80;99.90;;;;;;5027275;28;20258;-73
2022/09/04 12:46:13;;;;;;;1.00;0.98;;;28.90;99.90;;;;;;5021668;28;20219;-73
2022/09/04 12:48:56;;;;;;;1.17;0.80;;;28.90;99.90;;;;;;5023864;28;20218;-72
2022/09/04 12:51:30;;;;;;;0.88;0.88;;;29.00;99.90;;;;;;5023959;28;20211;-72
2022/09/04 12:54:30;;;;;;;0.80;0.80;;;29.00;99.90;;;;;;5029095;28;20685;-71
2022/09/04 12:57:10;;;;;;;0.80;0.80;;;29.20;99.90;;;;;;5025986;28;20593;-71
2022/09/04 12:59:51;;;;;;;0.80;0.80;;;29.40;99.90;;;;;;5036911;22;20693;-76
2022/09/04 13:02:32;;;;;;;0.77;0.77;;;29.40;99.90;;;;;;5020425;28;20208;-76
2022/09/04 13:05:11;;;;;;;1.27;0.90;;;29.40;99.90;;;;;;5020865;28;20270;-74
2022/09/04 13:07:52;;;;;;;1.00;1.00;;;29.30;99.90;;;;;;5022925;28;20218;-76
2022/09/04 13:10:25;;;;;;;1.00;1.00;;;29.10;99.90;;;;;;5028187;28;20216;-75
2022/09/04 13:13:03;;;;;;;0.77;0.70;;;29.00;99.90;;;;;;5025988;28;20220;-76
2022/09/04 13:15:40;;;;;;;1.00;1.00;;;29.10;99.90;;;;;;5021990;28;20222;-76
2022/09/04 13:18:25;;;;;;;1.50;1.05;;;29.00;99.90;;;;;;5026631;28;20203;-76
2022/09/04 13:21:01;;;;;;;1.10;1.00;;;29.00;99.90;;;;;;5019579;28;20243;-76
2022/09/04 13:23:45;;;;;;;0.90;0.90;;;29.10;99.90;;;;;;5027603;28;20200;-76
2022/09/04 13:26:32;;;;;;;1.05;0.90;;;29.20;99.90;;;;;;5024542;28;20615;-76
2022/09/04 13:29:15;;;;;;;1.98;0.90;;;29.30;99.90;;;;;;5025430;28;20208;-76
2022/09/04 13:31:59;;;;;;;0.90;0.90;;;29.40;99.90;;;;;;5026109;28;20223;-76
2022/09/04 13:34:36;;;;;;;1.10;1.00;;;29.30;99.90;;;;;;5023432;28;20225;-76
2022/09/04 13:37:12;;;;;;;1.27;1.17;;;29.40;99.90;;;;;;5025189;28;20195;-77
2022/09/04 13:40:11;;;;;;;0.82;0.82;;;29.60;99.90;;;;;;5025969;28;20230;-76
2022/09/04 13:43:02;;;;;;;1.13;1.08;;;29.40;99.90;;;;;;5013468;28;20255;-76
2022/09/04 13:45:32;;;;;;;0.85;0.85;;;29.40;99.90;;;;;;5027570;28;20243;-76
2022/09/04 13:48:05;;;;;;;1.80;0.80;;;29.50;99.90;;;;;;5026712;28;20684;-75
2022/09/04 13:50:36;;;;;;;1.05;1.02;;;29.60;99.90;;;;;;5027546;28;20386;-76
2022/09/04 13:53:14;;;;;;;0.88;0.88;;;29.70;99.90;;;;;;5027688;28;20200;-77
2022/09/04 13:55:49;;;;;;;0.98;0.98;;;29.60;99.90;;;;;;5026013;28;20318;-76
2022/09/04 13:58:19;;;;;;;1.10;1.10;;;29.50;99.90;;;;;;5029699;28;20195;-77
2022/09/04 14:00:51;;;;;;;1.23;1.05;;;29.40;99.90;;;;;;5023490;28;20222;-75
2022/09/04 14:03:30;;;;;;;1.02;1.02;;;29.40;99.90;;;;;;5030151;28;20587;-77
2022/09/04 14:05:58;;;;;;;0.95;0.95;;;29.60;99.90;;;;;;5025949;28;20312;-76
2022/09/04 14:08:30;;;;;;;1.20;1.10;;;29.70;99.90;;;;;;5030682;28;20191;-76
2022/09/04 14:11:32;;;;;;;1.20;1.15;;;29.60;99.90;;;;;;5027816;28;20273;-76
2022/09/04 14:14:19;;;;;;;1.00;1.00;;;29.60;99.90;;;;;;5026719;28;20681;-76
2022/09/04 14:16:49;;;;;;;1.23;1.08;;;30.00;99.90;;;;;;5027358;28;20223;-77
2022/09/04 14:19:31;;;;;;;1.17;1.08;;;30.10;99.90;;;;;;5027575;28;20309;-77
2022/09/04 14:22:14;;;;;;;1.27;1.17;;;30.20;99.90;;;;;;5028122;28;20231;-77
2022/09/04 14:24:50;;;;;;;1.20;1.10;;;30.10;99.90;;;;;;5026706;28;20773;-76
2022/09/04 14:27:30;;;;;;;1.15;1.05;;;30.20;99.90;;;;;;5025809;28;20199;-76
2022/09/04 14:30:05;;;;;;;0.82;0.82;;;30.20;99.90;;;;;;5027566;28;20223;-76
2022/09/04 14:32:51;;;;;;;0.90;0.90;;;30.20;99.90;;;;;;5026359;28;20720;-76
2022/09/04 14:35:27;;;;;;;1.02;0.93;;;30.20;99.90;;;;;;5027163;28;20215;-76
2022/09/04 14:38:19;;;;;;;1.00;0.90;;;30.10;99.90;;;;;;5026633;28;20221;-78
2022/09/04 14:40:58;;;;;;;0.90;0.90;;;30.10;99.90;;;;;;5029180;28;20712;-73
2022/09/04 14:43:39;;;;;;;1.10;1.00;;;30.00;99.90;;;;;;5029444;28;20569;-74
2022/09/04 14:46:15;;;;;;;1.42;1.23;;;29.90;99.90;;;;;;5031779;28;20219;-73
2022/09/04 14:48:46;;;;;;;1.08;0.90;;;29.60;99.90;;;;;;5036549;28;20206;-74
2022/09/04 14:51:30;;;;;;;0.98;0.98;;;29.50;99.90;;;;;;5037359;28;20286;-75
2022/09/04 14:53:58;;;;;;;0.90;0.90;;;29.60;99.90;;;;;;5031302;28;20548;-74
2022/09/04 14:56:31;;;;;;;0.90;0.90;;;29.70;99.90;;;;;;5031708;28;20238;-76
2022/09/04 14:59:10;;;;;;;0.80;0.80;;;29.60;99.90;;;;;;5028902;28;20220;-76
2022/09/04 15:01:56;;;;;;;0.95;0.95;;;29.60;99.90;;;;;;5031749;28;20255;-77
2022/09/04 15:04:25;;;;;;;1.15;0.90;;;29.40;99.90;;;;;;5031310;28;20203;-76
2022/09/04 15:06:57;;;;;;;0.90;0.90;;;29.30;99.90;;;;;;5027801;28;20203;-76
2022/09/04 15:09:29;;;;;;;1.02;1.02;;;29.30;99.90;;;;;;5031356;28;20258;-76
2022/09/04 15:12:16;;;;;;;1.00;1.00;;;29.30;99.90;;;;;;5026982;28;20237;-75
2022/09/04 15:14:49;;;;;;;1.10;1.00;;;29.30;99.90;;;;;;5030065;28;20717;-76
2022/09/04 15:17:25;;;;;;;0.80;0.80;;;29.30;99.90;;;;;;5029698;28;20196;-77
2022/09/04 15:19:58;;;;;;;0.73;0.73;;;29.50;99.90;;;;;;5030123;28;20306;-76
2022/09/04 15:22:31;;;;;;;1.08;1.08;;;29.60;99.90;;;;;;5026994;28;20192;-77
2022/09/04 15:25:04;;;;;;;0.88;0.88;;;29.70;99.90;;;;;;5031622;28;20716;-76
2022/09/04 15:27:39;;;;;;;1.00;1.00;;;29.70;99.90;;;;;;5029800;28;20548;-76
2022/09/04 15:30:18;;;;;;;1.15;1.05;;;29.60;99.90;;;;;;5032373;28;20634;-75
2022/09/04 15:32:46;;;;;;;1.25;0.90;;;29.20;99.90;;;;;;5031871;28;20199;-76
2022/09/04 15:35:22;;;;;;;1.35;1.00;;;28.70;99.90;;;;;;5031418;28;20231;-76
2022/09/04 15:37:51;;;;;;;1.70;1.00;;;28.40;99.90;;;;;;5029742;28;20668;-76
2022/09/04 15:40:27;;;;;;;1.00;1.00;;;28.00;99.90;;;;;;5029691;28;20219;-76
2022/09/04 15:43:06;;;;;;;2.17;1.10;;;27.80;99.90;;;;;;5030182;28;20485;-75
2022/09/04 15:45:41;;;;;;;2.25;1.00;;;27.50;99.90;;;;;;5030218;28;20223;-75
2022/09/04 15:48:22;;;;;;;1.10;1.10;;;27.40;99.90;;;;;;5029025;28;20222;-76
2022/09/04 15:51:03;;;;;;;0.85;0.85;;;27.20;99.90;;;;;;5030509;28;20243;-76
2022/09/04 15:53:34;;;;;;;0.90;0.90;;;27.10;99.90;;;;;;5029906;28;20195;-76
2022/09/04 15:56:09;;;;;;;1.02;1.00;;;26.90;99.90;;;;;;5028601;28;20269;-76
2022/09/04 15:58:51;;;;;;;1.42;0.90;;;26.80;99.90;;;;;;5031228;28;20230;-76
2022/09/04 16:01:25;;;;;;;0.88;0.88;;;26.70;99.90;;;;;;5032674;28;20647;-75
2022/09/04 16:04:06;;;;;;;1.65;1.10;;;26.60;99.90;;;;;;5032618;28;20200;-76
2022/09/04 16:06:43;;;;;;;3.78;1.23;;;26.50;99.90;;;;;;5025130;28;20227;-76
2022/09/04 16:09:19;;;;;;;1.40;1.30;;;26.40;99.90;;;;;;5028510;28;20216;-76
2022/09/04 16:11:54;;;;;;;1.15;1.15;;;26.40;99.90;;;;;;5033361;28;20218;-76
2022/09/04 16:14:25;;;;;;;1.30;1.20;;;26.30;99.90;;;;;;5033200;28;20199;-76
2022/09/04 16:16:58;;;;;;;1.13;1.13;;;26.20;99.90;;;;;;5025843;28;20203;-76
2022/09/04 16:19:31;;;;;;;1.48;1.27;;;26.20;99.90;;;;;;5024701;28;20226;-76
2022/09/04 16:22:07;;;;;;;2.67;1.30;;;26.20;99.90;;;;;;5028482;28;20203;-76
2022/09/04 16:24:40;;;;;;;1.38;1.27;;;26.30;99.90;;;;;;5031443;28;20571;-76
2022/09/04 16:27:11;;;;;;;1.17;1.10;;;26.20;99.90;;;;;;5032255;28;20226;-75
2022/09/04 16:29:45;;;;;;;1.33;1.20;;;26.20;99.90;;;;;;5025955;28;20226;-76
2022/09/04 16:32:20;;;;;;;2.35;1.60;;;26.10;99.90;;;;;;5031031;28;20196;-76
2022/09/04 16:34:51;;;;;;;1.50;1.40;;;26.10;99.90;;;;;;5025524;28;20230;-76
2022/09/04 16:37:25;;;;;;;1.45;1.35;;;26.10;99.90;;;;;;5030289;28;20192;-76
2022/09/04 16:40:12;;;;;;;1.65;1.55;;;26.10;99.90;;;;;;5029934;28;20922;-76
2022/09/04 16:42:46;;;;;;;1.67;1.25;;;26.00;99.90;;;;;;5026363;28;20195;-76
2022/09/04 16:45:18;;;;;;;1.70;1.40;;;26.00;99.90;;;;;;5030366;28;20215;-77
2022/09/04 16:47:53;;;;;;;1.35;1.25;;;25.90;99.90;;;;;;5027722;28;20203;-76
2022/09/04 16:50:26;;;;;;;2.55;1.30;;;25.90;99.90;;;;;;5033661;28;20623;-76
2022/09/04 16:53:12;;;;;;;1.40;1.30;;;25.90;99.90;;;;;;5027234;28;20319;-76
2022/09/04 16:55:44;;;;;;;1.45;1.35;;;25.90;99.90;;;;;;5024555;28;20215;-76
2022/09/04 16:58:32;;;;;;;1.67;1.45;;;25.80;99.90;;;;;;5032072;28;20192;-77
2022/09/04 17:01:11;;;;;;;3.25;1.52;;;25.70;99.90;;;;;;5030792;28;20225;-76
2022/09/04 17:03:53;;;;;;;1.70;1.55;;;25.70;99.90;;;;;;5030484;28;20191;-75
2022/09/04 17:06:27;;;;;;;1.77;1.58;;;25.70;99.90;;;;;;5032135;28;20226;-77
2022/09/04 17:09:04;;;;;;;2.30;1.60;;;25.70;99.90;;;;;;5028589;28;20223;-76
2022/09/04 17:11:39;;;;;;;3.10;1.67;;;25.60;99.90;;;;;;5029224;28;20763;-76
2022/09/04 17:14:17;;;;;;;2.15;1.80;;;25.60;99.90;;;;;;5030194;28;20200;-75
2022/09/04 17:16:57;;;;;;;1.90;1.80;;;25.50;99.90;;;;;;5029922;28;20239;-75
2022/09/04 17:19:27;;;;;;;1.98;1.80;;;25.40;99.90;;;;;;5029936;28;20215;-76
2022/09/04 17:25:12;;;;;;;2.15;1.95;;;25.40;99.90;;;;;;5026733;28;20583;-75
2022/09/04 17:27:47;;;;;;;1.65;1.55;;;25.40;99.90;;;;;;5026666;28;20215;-76
2022/09/04 17:30:23;;;;;;;2.00;1.80;;;25.40;99.90;;;;;;5027851;28;20261;-76
2022/09/04 17:32:57;;;;;;;1.95;1.85;;;25.40;99.90;;;;;;5030672;28;20234;-76
2022/09/04 17:35:35;;;;;;;1.77;1.67;;;25.30;99.90;;;;;;5030942;28;20858;-76
2022/09/04 17:38:09;;;;;;;1.98;1.73;;;25.30;99.90;;;;;;5030888;28;20208;-77
2022/09/04 17:40:45;;;;;;;3.08;2.22;;;25.30;99.90;;;;;;5028948;28;20231;-76
2022/09/04 17:43:26;;;;;;;2.15;1.98;;;25.20;99.90;;;;;;5029089;28;20283;-76
2022/09/04 17:46:07;;;;;;;2.78;1.98;;;25.10;99.90;;;;;;5028083;28;20729;-77
2022/09/04 17:48:41;;;;;;;2.72;2.10;;;25.10;99.90;;;;;;5032222;28;20647;-75